Time;durP1;ratioP1;P1;durP2;ratioP2;P2;SDS_P1;SDS_P2;PMS_P1;PMS_P2;Temp;Humidity;BMP_temperature;BMP_pressure;BME280_temperature;BME280_humidity;BME280_pressure;Samples;Min_cycle;Max_cycle;Signal;HPM_P1;HPM_P2
2023/06/18 00:02:02;;;;;;;17.38;10.18;;;15.90;99.90;;;;;;5045028;28;20162;-62
2023/06/18 00:04:28;;;;;;;21.98;10.25;;;15.90;99.90;;;;;;5045880;28;20051;-62
2023/06/18 00:06:54;;;;;;;18.77;10.75;;;15.90;99.90;;;;;;5041605;28;20044;-63
2023/06/18 00:09:21;;;;;;;14.63;9.27;;;15.90;99.90;;;;;;5040945;28;20071;-62
2023/06/18 00:11:47;;;;;;;19.52;11.10;;;15.90;99.90;;;;;;5042136;28;20163;-61
2023/06/18 00:14:12;;;;;;;16.90;10.00;;;15.90;99.90;;;;;;5037991;28;20493;-63
2023/06/18 00:16:38;;;;;;;19.95;10.27;;;15.90;99.90;;;;;;5042323;28;20495;-64
2023/06/18 00:19:03;;;;;;;21.15;10.50;;;15.90;99.90;;;;;;5042574;28;20029;-63
2023/06/18 00:21:29;;;;;;;18.27;9.65;;;15.90;99.90;;;;;;5038586;28;20029;-63
2023/06/18 00:23:55;;;;;;;18.98;10.18;;;15.90;99.90;;;;;;5040659;28;20146;-61
2023/06/18 00:26:22;;;;;;;16.20;9.38;;;15.90;99.90;;;;;;5035360;28;20526;-63
2023/06/18 00:28:48;;;;;;;17.17;9.48;;;15.90;99.90;;;;;;5043120;28;20037;-63
2023/06/18 00:31:13;;;;;;;29.52;10.57;;;15.80;99.90;;;;;;5034529;28;20439;-63
2023/06/18 00:33:39;;;;;;;17.35;9.35;;;15.80;99.90;;;;;;5042136;28;20032;-62
2023/06/18 00:36:06;;;;;;;17.13;9.93;;;15.90;99.90;;;;;;5037773;28;20041;-63
2023/06/18 00:38:33;;;;;;;19.90;10.82;;;15.90;99.90;;;;;;5044113;28;20028;-63
2023/06/18 00:40:59;;;;;;;18.50;9.30;;;15.90;99.90;;;;;;5036512;28;20095;-62
2023/06/18 00:43:28;;;;;;;19.65;9.43;;;16.00;99.90;;;;;;5047571;28;20087;-63
2023/06/18 00:45:59;;;;;;;19.55;9.32;;;16.00;99.90;;;;;;5034163;28;20025;-63
2023/06/18 00:48:25;;;;;;;12.82;9.00;;;16.10;99.90;;;;;;5041557;28;20033;-62
2023/06/18 00:50:53;;;;;;;18.20;9.50;;;16.10;99.90;;;;;;5031595;28;20511;-62
2023/06/18 00:53:20;;;;;;;19.42;9.65;;;16.10;99.90;;;;;;5042294;28;20036;-62
2023/06/18 00:55:47;;;;;;;20.58;9.23;;;16.10;99.90;;;;;;5039292;28;20029;-64
2023/06/18 00:58:13;;;;;;;17.50;8.88;;;16.00;99.90;;;;;;5041826;28;20053;-61
2023/06/18 01:00:40;;;;;;;15.85;9.38;;;16.00;99.90;;;;;;5037058;28;20936;-63
2023/06/18 01:03:15;;;;;;;15.10;9.23;;;16.10;99.90;;;;;;5041451;28;20534;-62
2023/06/18 01:05:42;;;;;;;17.15;9.18;;;16.10;99.90;;;;;;5036301;28;20061;-62
2023/06/18 01:08:12;;;;;;;15.40;8.85;;;16.10;99.90;;;;;;5038615;28;20045;-63
2023/06/18 01:10:40;;;;;;;17.60;9.05;;;16.10;99.90;;;;;;5040998;28;20025;-63
2023/06/18 01:13:09;;;;;;;15.63;9.10;;;16.20;99.90;;;;;;5043724;28;20028;-63
2023/06/18 01:15:34;;;;;;;14.85;7.85;;;16.20;99.90;;;;;;5045135;28;20024;-61
2023/06/18 01:18:01;;;;;;;12.40;8.55;;;16.20;99.90;;;;;;5045480;28;20502;-63
2023/06/18 01:20:30;;;;;;;17.48;8.45;;;16.20;99.90;;;;;;5043711;28;20039;-63
2023/06/18 01:23:01;;;;;;;16.35;8.18;;;16.10;99.90;;;;;;5049734;28;20041;-62
2023/06/18 01:25:32;;;;;;;15.95;8.95;;;16.10;99.90;;;;;;5046750;28;20021;-63
2023/06/18 01:28:01;;;;;;;14.48;7.75;;;16.10;99.90;;;;;;5047877;28;20055;-64
2023/06/18 01:30:27;;;;;;;14.63;8.38;;;16.00;99.90;;;;;;5042347;28;20033;-62
2023/06/18 01:32:55;;;;;;;16.80;8.50;;;15.90;99.90;;;;;;5037242;28;20055;-63
2023/06/18 01:35:21;;;;;;;16.15;8.10;;;15.90;99.90;;;;;;5043776;28;20155;-63
2023/06/18 01:37:53;;;;;;;14.30;8.25;;;15.80;99.90;;;;;;5036633;28;20117;-64
2023/06/18 01:40:30;;;;;;;19.02;8.43;;;15.80;99.90;;;;;;5042671;28;20456;-64
2023/06/18 01:43:07;;;;;;;14.65;8.30;;;15.70;99.90;;;;;;5041520;28;20120;-64
2023/06/18 01:45:41;;;;;;;14.57;7.68;;;15.70;99.90;;;;;;5042139;28;20487;-62
2023/06/18 01:48:08;;;;;;;11.70;7.35;;;15.70;99.90;;;;;;5038281;28;20078;-63
2023/06/18 01:50:37;;;;;;;12.27;8.05;;;15.70;99.90;;;;;;5042960;28;20387;-63
2023/06/18 01:53:06;;;;;;;13.82;7.65;;;15.70;99.90;;;;;;5039095;28;20040;-63
2023/06/18 01:55:34;;;;;;;15.05;7.53;;;15.70;99.90;;;;;;5045583;28;20445;-64
2023/06/18 01:58:00;;;;;;;16.10;8.10;;;15.70;99.90;;;;;;5040621;28;20021;-63
2023/06/18 02:00:26;;;;;;;14.52;7.93;;;15.60;99.90;;;;;;5041490;28;20028;-60
2023/06/18 02:02:52;;;;;;;17.73;8.07;;;15.60;99.90;;;;;;5045781;28;20091;-63
2023/06/18 02:05:18;;;;;;;15.50;7.30;;;15.60;99.90;;;;;;5047232;28;20021;-64
2023/06/18 02:07:44;;;;;;;14.88;7.75;;;15.50;99.90;;;;;;5043670;28;20048;-64
2023/06/18 02:10:10;;;;;;;11.90;7.85;;;15.50;99.90;;;;;;5043935;28;20650;-63
2023/06/18 02:12:35;;;;;;;14.20;8.50;;;15.50;99.90;;;;;;5040725;28;20108;-63
2023/06/18 02:15:01;;;;;;;15.98;8.45;;;15.40;99.90;;;;;;5038688;28;20407;-63
2023/06/18 02:17:28;;;;;;;14.48;8.18;;;15.40;99.90;;;;;;5048409;28;20047;-63
2023/06/18 02:19:53;;;;;;;13.35;7.93;;;15.40;99.90;;;;;;5038281;28;20488;-63
2023/06/18 02:22:19;;;;;;;14.52;8.52;;;15.30;99.90;;;;;;5040219;28;20037;-63
2023/06/18 02:24:45;;;;;;;13.63;8.23;;;15.30;99.90;;;;;;5043577;28;20029;-64
2023/06/18 02:27:11;;;;;;;15.85;8.55;;;15.30;99.90;;;;;;5042458;28;20025;-64
2023/06/18 02:29:37;;;;;;;11.38;7.50;;;15.20;99.90;;;;;;5040216;28;20082;-62
2023/06/18 02:32:03;;;;;;;12.98;8.57;;;15.20;99.90;;;;;;5047283;28;20026;-64
2023/06/18 02:34:28;;;;;;;17.63;8.20;;;15.20;99.90;;;;;;5044408;28;20021;-62
2023/06/18 02:36:54;;;;;;;16.63;8.73;;;15.20;99.90;;;;;;5041214;28;20048;-63
2023/06/18 02:39:20;;;;;;;13.52;7.90;;;15.10;99.90;;;;;;5038969;28;20400;-64
2023/06/18 02:41:46;;;;;;;15.38;8.80;;;15.10;99.90;;;;;;5039938;28;20029;-62
2023/06/18 02:44:12;;;;;;;16.08;7.80;;;15.10;99.90;;;;;;5036096;28;20040;-62
2023/06/18 02:46:37;;;;;;;14.82;8.18;;;15.00;99.90;;;;;;5041744;28;20444;-62
2023/06/18 02:49:03;;;;;;;13.35;8.18;;;15.10;99.90;;;;;;5038417;28;20096;-63
2023/06/18 02:51:29;;;;;;;13.98;8.52;;;15.00;99.90;;;;;;5047985;28;20060;-64
2023/06/18 02:53:54;;;;;;;13.65;7.68;;;15.00;99.90;;;;;;5040184;28;20026;-64
2023/06/18 02:56:21;;;;;;;14.75;8.27;;;15.00;99.90;;;;;;5043974;28;20634;-62
2023/06/18 02:58:51;;;;;;;16.40;7.75;;;14.90;99.90;;;;;;5036571;28;20036;-63
2023/06/18 03:01:19;;;;;;;13.50;7.88;;;14.90;99.90;;;;;;5045304;28;20014;-63
2023/06/18 03:03:44;;;;;;;13.45;7.47;;;14.90;99.90;;;;;;5035320;28;20046;-63
2023/06/18 03:06:10;;;;;;;14.23;8.18;;;14.90;99.90;;;;;;5045246;28;20110;-61
2023/06/18 03:08:36;;;;;;;11.40;7.93;;;14.80;99.90;;;;;;5039963;28;20036;-63
2023/06/18 03:11:01;;;;;;;11.82;7.75;;;14.80;99.90;;;;;;5047661;28;20466;-62
2023/06/18 03:13:27;;;;;;;12.77;8.05;;;14.80;99.90;;;;;;5040444;28;20057;-63
2023/06/18 03:15:52;;;;;;;20.33;8.05;;;14.80;99.90;;;;;;5043936;28;20023;-63
2023/06/18 03:18:18;;;;;;;12.48;8.10;;;14.70;99.90;;;;;;5040311;28;20021;-63
2023/06/18 03:20:43;;;;;;;14.75;7.47;;;14.70;99.90;;;;;;5046575;28;20040;-64
2023/06/18 03:23:09;;;;;;;13.60;8.02;;;14.70;99.90;;;;;;5043027;28;20048;-63
2023/06/18 03:25:34;;;;;;;14.15;8.18;;;14.70;99.90;;;;;;5047135;28;20029;-64
2023/06/18 03:28:00;;;;;;;19.70;8.85;;;14.70;99.90;;;;;;5043285;28;20140;-63
2023/06/18 03:30:26;;;;;;;14.23;8.15;;;14.70;99.90;;;;;;5040024;28;20029;-63
2023/06/18 03:32:55;;;;;;;12.18;7.82;;;14.70;99.90;;;;;;5041762;28;20058;-63
2023/06/18 03:35:21;;;;;;;16.85;8.18;;;14.70;99.90;;;;;;5047338;28;20104;-63
2023/06/18 03:37:47;;;;;;;15.98;7.28;;;14.60;99.90;;;;;;5041227;28;20029;-62
2023/06/18 03:40:12;;;;;;;14.55;7.53;;;14.60;99.90;;;;;;5046557;28;20522;-63
2023/06/18 03:42:38;;;;;;;12.48;7.40;;;14.60;99.90;;;;;;5042020;28;20033;-62
2023/06/18 03:45:05;;;;;;;17.15;8.50;;;14.60;99.90;;;;;;5044126;28;20040;-64
2023/06/18 03:47:31;;;;;;;12.75;8.20;;;14.60;99.90;;;;;;5048283;28;20017;-63
2023/06/18 03:49:56;;;;;;;12.07;7.80;;;14.60;99.90;;;;;;5044669;28;20041;-61
2023/06/18 03:52:22;;;;;;;11.57;7.65;;;14.60;99.90;;;;;;5044223;28;20079;-61
2023/06/18 03:54:47;;;;;;;11.38;7.63;;;14.60;99.90;;;;;;5037394;28;20048;-60
2023/06/18 03:57:13;;;;;;;11.50;7.05;;;14.60;99.90;;;;;;5038180;28;20094;-62
2023/06/18 03:59:39;;;;;;;11.60;7.10;;;14.60;99.90;;;;;;5040172;28;20519;-63
2023/06/18 04:02:05;;;;;;;13.80;6.85;;;14.70;99.90;;;;;;5043352;28;20029;-64
2023/06/18 04:04:30;;;;;;;9.68;6.90;;;14.70;99.90;;;;;;5041825;28;20041;-63
2023/06/18 04:06:56;;;;;;;10.95;7.30;;;14.80;99.90;;;;;;5041499;28;20033;-64
2023/06/18 04:09:21;;;;;;;16.30;7.47;;;14.80;99.90;;;;;;5039895;28;20039;-63
2023/06/18 04:11:48;;;;;;;11.93;7.28;;;14.80;99.90;;;;;;5039972;28;20032;-62
2023/06/18 04:14:13;;;;;;;16.00;7.80;;;14.80;99.90;;;;;;5048097;28;20032;-64
2023/06/18 04:16:39;;;;;;;13.45;7.93;;;14.80;99.90;;;;;;5041137;28;20032;-62
2023/06/18 04:19:05;;;;;;;12.60;7.47;;;14.90;99.90;;;;;;5039709;28;20495;-63
2023/06/18 04:21:30;;;;;;;12.70;6.78;;;14.90;99.90;;;;;;5047907;28;20038;-63
2023/06/18 04:23:56;;;;;;;13.57;7.80;;;14.90;99.90;;;;;;5055553;28;20025;-64
2023/06/18 04:26:22;;;;;;;12.23;7.85;;;15.00;99.90;;;;;;5054919;28;20028;-64
2023/06/18 04:28:50;;;;;;;10.38;6.97;;;15.00;99.90;;;;;;5039541;28;20022;-64
2023/06/18 04:31:15;;;;;;;10.05;6.63;;;15.10;99.90;;;;;;5047046;28;20110;-64
2023/06/18 04:33:41;;;;;;;11.48;6.78;;;15.10;99.90;;;;;;5036382;28;20029;-64
2023/06/18 04:36:07;;;;;;;10.95;7.07;;;15.10;99.90;;;;;;5044026;28;20032;-63
2023/06/18 04:38:32;;;;;;;14.38;7.22;;;15.20;99.90;;;;;;5044201;28;20015;-64
2023/06/18 04:40:58;;;;;;;13.73;6.28;;;15.30;99.90;;;;;;5045359;28;20075;-64
2023/06/18 04:43:23;;;;;;;11.43;7.60;;;15.40;99.90;;;;;;5040527;28;20094;-64
2023/06/18 04:45:49;;;;;;;9.55;6.57;;;15.50;99.90;;;;;;5045730;28;20384;-63
2023/06/18 04:48:14;;;;;;;8.98;6.13;;;15.60;99.90;;;;;;5037422;28;20032;-63
2023/06/18 04:50:40;;;;;;;12.02;7.05;;;15.70;99.90;;;;;;5043670;28;20029;-64
2023/06/18 04:53:06;;;;;;;12.02;7.03;;;15.80;99.90;;;;;;5044180;28;20025;-64
2023/06/18 04:55:32;;;;;;;13.45;6.93;;;15.90;99.90;;;;;;5044282;28;20039;-63
2023/06/18 04:57:58;;;;;;;13.48;6.97;;;16.10;99.90;;;;;;5037651;28;20187;-64
2023/06/18 05:00:23;;;;;;;11.68;6.80;;;16.20;99.90;;;;;;5038142;28;20036;-62
2023/06/18 05:02:49;;;;;;;10.77;6.78;;;16.30;99.90;;;;;;5038268;28;20033;-61
2023/06/18 05:05:15;;;;;;;10.25;6.57;;;16.40;99.90;;;;;;5040077;28;20068;-62
2023/06/18 05:07:41;;;;;;;8.65;5.88;;;16.50;99.90;;;;;;5043999;28;20028;-62
2023/06/18 05:10:08;;;;;;;12.88;6.50;;;16.60;99.90;;;;;;5035910;28;20033;-62
2023/06/18 05:12:34;;;;;;;9.77;6.18;;;16.70;99.90;;;;;;5034876;28;20487;-62
2023/06/18 05:14:59;;;;;;;12.00;6.22;;;16.80;99.90;;;;;;5042465;28;20044;-64
2023/06/18 05:17:25;;;;;;;13.35;6.40;;;16.80;99.90;;;;;;5043143;28;20025;-63
2023/06/18 05:19:50;;;;;;;12.02;7.32;;;16.90;99.90;;;;;;5040278;28;20567;-63
2023/06/18 05:22:16;;;;;;;10.60;6.68;;;17.00;99.90;;;;;;5037961;28;20105;-63
2023/06/18 05:24:42;;;;;;;10.32;6.13;;;17.00;99.90;;;;;;5037288;28;20029;-64
2023/06/18 05:27:07;;;;;;;12.30;7.05;;;17.10;99.90;;;;;;5042170;28;20064;-63
2023/06/18 05:29:33;;;;;;;10.75;6.82;;;17.20;99.90;;;;;;5038339;28;20045;-64
2023/06/18 05:31:58;;;;;;;12.40;7.18;;;17.30;99.90;;;;;;5041120;28;20499;-63
2023/06/18 05:34:24;;;;;;;11.25;7.55;;;17.30;99.90;;;;;;5043546;28;20364;-62
2023/06/18 05:36:49;;;;;;;13.55;6.75;;;17.40;99.90;;;;;;5045643;28;20567;-62
2023/06/18 05:39:15;;;;;;;10.32;7.22;;;17.50;99.90;;;;;;5045563;28;20507;-63
2023/06/18 05:41:40;;;;;;;13.60;6.95;;;17.50;99.90;;;;;;5042547;28;20063;-62
2023/06/18 05:44:06;;;;;;;12.30;6.45;;;17.60;99.90;;;;;;5041938;28;20095;-64
2023/06/18 05:46:31;;;;;;;15.23;7.00;;;17.60;99.90;;;;;;5036214;28;20637;-63
2023/06/18 05:48:57;;;;;;;12.48;6.65;;;17.70;99.90;;;;;;5041129;28;20037;-64
2023/06/18 05:51:23;;;;;;;11.88;6.97;;;17.80;99.90;;;;;;5043948;28;20395;-63
2023/06/18 05:53:48;;;;;;;13.85;6.65;;;17.80;99.90;;;;;;5039002;28;20083;-63
2023/06/18 05:56:14;;;;;;;11.07;7.38;;;17.90;99.90;;;;;;5044966;28;20071;-64
2023/06/18 05:58:40;;;;;;;9.55;6.35;;;17.90;99.90;;;;;;5040140;28;20022;-64
2023/06/18 06:01:06;;;;;;;12.93;6.43;;;17.90;99.90;;;;;;5044284;28;20107;-64
2023/06/18 06:03:35;;;;;;;8.75;5.82;;;18.00;99.90;;;;;;5039653;28;20026;-64
2023/06/18 06:06:01;;;;;;;11.43;6.70;;;18.00;99.90;;;;;;5040673;28;20553;-62
2023/06/18 06:08:26;;;;;;;11.20;6.43;;;18.00;99.90;;;;;;5037586;28;20492;-64
2023/06/18 06:10:52;;;;;;;11.20;6.35;;;18.10;99.90;;;;;;5043800;28;20036;-63
2023/06/18 06:13:19;;;;;;;10.63;5.93;;;18.10;99.90;;;;;;5042949;28;20021;-64
2023/06/18 06:15:44;;;;;;;11.93;6.50;;;18.20;99.90;;;;;;5041521;28;20028;-62
2023/06/18 06:18:10;;;;;;;12.57;6.53;;;18.20;99.90;;;;;;5040288;28;20017;-63
2023/06/18 06:20:35;;;;;;;11.27;6.72;;;18.20;99.90;;;;;;5035517;28;20029;-63
2023/06/18 06:23:01;;;;;;;12.73;7.07;;;18.30;99.90;;;;;;5047700;28;20107;-65
2023/06/18 06:25:26;;;;;;;9.75;6.28;;;18.40;99.90;;;;;;5048764;28;20035;-64
2023/06/18 06:27:52;;;;;;;11.20;6.75;;;18.50;99.90;;;;;;5046978;28;20029;-63
2023/06/18 06:30:18;;;;;;;12.70;6.78;;;18.50;99.90;;;;;;5041733;28;20033;-63
2023/06/18 06:32:43;;;;;;;10.48;6.32;;;18.70;99.90;;;;;;5047451;28;20044;-63
2023/06/18 06:35:09;;;;;;;15.13;5.75;;;18.80;99.90;;;;;;5045564;28;20060;-64
2023/06/18 06:37:35;;;;;;;12.07;7.03;;;18.90;99.90;;;;;;5041708;28;20044;-65
2023/06/18 06:40:00;;;;;;;12.07;6.80;;;19.00;99.90;;;;;;5044042;28;20021;-64
2023/06/18 06:42:26;;;;;;;15.25;6.47;;;19.00;99.90;;;;;;5044494;28;20047;-64
2023/06/18 06:44:52;;;;;;;9.02;5.82;;;19.00;99.90;;;;;;5042879;28;20167;-65
2023/06/18 06:47:17;;;;;;;12.75;6.88;;;19.10;99.90;;;;;;5044712;28;20364;-62
2023/06/18 06:49:45;;;;;;;9.85;6.65;;;19.20;99.90;;;;;;5045651;28;20034;-64
2023/06/18 06:52:11;;;;;;;9.23;6.32;;;19.20;99.90;;;;;;5041013;28;20021;-64
2023/06/18 06:54:36;;;;;;;13.45;6.32;;;19.30;99.90;;;;;;5048026;28;20021;-64
2023/06/18 06:57:02;;;;;;;12.45;6.60;;;19.30;99.90;;;;;;5038557;28;20022;-64
2023/06/18 06:59:27;;;;;;;12.00;6.03;;;19.40;99.90;;;;;;5042638;28;20044;-64
2023/06/18 07:01:53;;;;;;;13.18;6.60;;;19.50;99.90;;;;;;5037956;28;20037;-63
2023/06/18 07:04:19;;;;;;;10.27;6.15;;;19.60;99.90;;;;;;5036958;28;20560;-62
2023/06/18 07:06:44;;;;;;;10.07;5.75;;;19.70;99.90;;;;;;5036230;28;21999;-62
2023/06/18 07:09:10;;;;;;;9.60;6.45;;;19.80;99.90;;;;;;5041614;28;20107;-64
2023/06/18 07:11:36;;;;;;;10.48;6.10;;;19.90;99.90;;;;;;5034949;28;20095;-64
2023/06/18 07:14:02;;;;;;;13.18;6.20;;;20.00;99.90;;;;;;5038471;28;20016;-62
2023/06/18 07:16:28;;;;;;;8.57;5.68;;;20.20;99.90;;;;;;5040570;28;20483;-63
2023/06/18 07:18:53;;;;;;;9.50;5.70;;;20.30;99.90;;;;;;5045461;28;20114;-62
2023/06/18 07:21:19;;;;;;;10.68;6.30;;;20.40;99.90;;;;;;5047928;28;20030;-63
2023/06/18 07:23:44;;;;;;;14.23;6.53;;;20.50;99.90;;;;;;5050049;28;20025;-64
2023/06/18 07:26:10;;;;;;;8.75;6.18;;;20.60;99.90;;;;;;5048770;28;20022;-64
2023/06/18 07:28:35;;;;;;;9.45;5.75;;;20.70;99.90;;;;;;5039700;28;20025;-65
2023/06/18 07:31:01;;;;;;;9.05;5.85;;;20.90;99.90;;;;;;5041047;28;20407;-65
2023/06/18 07:33:27;;;;;;;7.18;5.78;;;21.00;99.90;;;;;;5037484;28;20612;-64
2023/06/18 07:35:53;;;;;;;7.93;5.30;;;21.10;99.90;;;;;;5033163;28;20048;-65
2023/06/18 07:38:18;;;;;;;9.68;6.38;;;21.20;99.90;;;;;;5041287;28;20423;-65
2023/06/18 07:40:44;;;;;;;9.48;5.63;;;21.30;99.90;;;;;;5045854;28;20041;-64
2023/06/18 07:43:09;;;;;;;10.57;5.93;;;21.40;99.90;;;;;;5035478;28;20033;-64
2023/06/18 07:45:35;;;;;;;11.48;6.25;;;21.50;99.90;;;;;;5037300;28;20029;-65
2023/06/18 07:48:01;;;;;;;7.65;5.10;;;21.60;99.90;;;;;;5036548;28;20039;-63
2023/06/18 07:50:27;;;;;;;11.38;5.82;;;21.80;99.90;;;;;;5038359;28;20021;-61
2023/06/18 07:52:52;;;;;;;13.18;5.90;;;21.90;99.90;;;;;;5038942;28;20025;-62
2023/06/18 07:55:18;;;;;;;7.28;5.35;;;21.90;99.90;;;;;;5044236;28;20578;-61
2023/06/18 07:57:43;;;;;;;8.35;5.53;;;22.00;99.90;;;;;;5033571;28;20048;-61
2023/06/18 08:00:10;;;;;;;9.75;5.65;;;22.00;99.90;;;;;;5039404;28;20046;-63
2023/06/18 08:02:35;;;;;;;12.85;5.85;;;22.10;99.90;;;;;;5042440;28;20036;-61
2023/06/18 08:05:01;;;;;;;13.18;6.00;;;22.10;99.90;;;;;;5038915;28;20507;-61
2023/06/18 08:07:27;;;;;;;9.75;5.68;;;22.20;99.90;;;;;;5035922;28;20525;-63
2023/06/18 08:09:52;;;;;;;10.05;5.55;;;22.30;99.90;;;;;;5042283;28;20040;-63
2023/06/18 08:12:18;;;;;;;7.90;5.32;;;22.40;99.90;;;;;;5034858;28;20037;-64
2023/06/18 08:14:47;;;;;;;9.88;6.22;;;22.50;99.90;;;;;;5043062;28;20025;-64
2023/06/18 08:17:16;;;;;;;10.52;5.90;;;22.70;99.90;;;;;;5043054;28;20112;-62
2023/06/18 08:19:44;;;;;;;10.55;5.70;;;22.80;99.90;;;;;;5045727;28;20032;-63
2023/06/18 08:22:14;;;;;;;11.10;5.80;;;22.90;99.90;;;;;;5040612;28;20033;-62
2023/06/18 08:24:39;;;;;;;11.93;5.75;;;23.10;99.90;;;;;;5037218;28;20063;-62
2023/06/18 08:27:05;;;;;;;15.40;7.82;;;23.30;99.90;;;;;;5033318;28;20121;-62
2023/06/18 08:29:31;;;;;;;11.48;6.03;;;23.40;99.90;;;;;;5040758;28;20075;-61
2023/06/18 08:31:59;;;;;;;19.02;5.70;;;23.50;99.90;;;;;;5045387;28;20395;-59
2023/06/18 08:34:25;;;;;;;8.77;5.40;;;23.60;99.90;;;;;;5039802;28;20136;-62
2023/06/18 08:36:51;;;;;;;10.85;5.82;;;23.70;99.90;;;;;;5039531;28;20100;-63
2023/06/18 08:39:17;;;;;;;8.23;5.50;;;23.90;99.90;;;;;;5023767;28;20104;-62
2023/06/18 08:41:45;;;;;;;9.50;5.88;;;24.00;99.90;;;;;;5036823;28;20033;-62
2023/06/18 08:44:10;;;;;;;11.60;5.45;;;24.00;99.90;;;;;;5035440;28;20018;-62
2023/06/18 08:46:38;;;;;;;8.00;5.00;;;24.20;99.90;;;;;;5036558;28;20057;-61
2023/06/18 08:49:06;;;;;;;9.40;6.45;;;24.30;99.90;;;;;;5037646;28;20048;-62
2023/06/18 08:51:35;;;;;;;8.43;5.07;;;24.40;99.90;;;;;;5044511;28;20455;-62
2023/06/18 08:54:19;;;;;;;8.07;5.57;;;24.50;99.90;;;;;;5038256;28;20515;-62
2023/06/18 08:56:47;;;;;;;7.70;5.70;;;24.60;99.90;;;;;;5037749;28;20033;-62
2023/06/18 08:59:14;;;;;;;9.70;6.07;;;24.70;99.90;;;;;;5037306;28;20055;-63
2023/06/18 09:01:42;;;;;;;9.68;5.38;;;24.80;99.90;;;;;;5037931;28;20075;-62
2023/06/18 09:04:09;;;;;;;7.97;5.78;;;24.80;99.90;;;;;;5037386;28;20391;-62
2023/06/18 09:06:36;;;;;;;11.00;5.63;;;25.00;99.90;;;;;;5033800;28;20028;-61
2023/06/18 09:09:02;;;;;;;8.05;5.50;;;25.10;99.90;;;;;;5036906;28;20024;-62
2023/06/18 09:11:28;;;;;;;8.75;5.53;;;25.20;99.90;;;;;;5042328;28;20025;-60
2023/06/18 09:13:53;;;;;;;6.78;5.07;;;25.30;99.90;;;;;;5039932;28;20517;-62
2023/06/18 09:16:19;;;;;;;7.15;5.20;;;25.40;99.90;;;;;;5038145;28;20049;-63
2023/06/18 09:18:45;;;;;;;11.63;6.05;;;25.50;99.90;;;;;;5041742;28;20044;-62
2023/06/18 09:21:38;;;;;;;8.00;6.15;;;25.70;99.90;;;;;;5038802;28;20041;-62
2023/06/18 09:24:24;;;;;;;8.10;5.75;;;25.80;99.90;;;;;;5036418;28;20395;-61
2023/06/18 09:27:05;;;;;;;14.60;5.70;;;25.90;99.90;;;;;;5040999;28;20040;-62
2023/06/18 09:29:33;;;;;;;8.40;5.75;;;26.10;99.90;;;;;;5034799;28;20036;-64
2023/06/18 09:32:10;;;;;;;9.07;5.78;;;26.10;99.90;;;;;;5038038;28;20025;-61
2023/06/18 09:34:37;;;;;;;10.00;5.88;;;26.00;99.90;;;;;;5036662;28;20076;-64
2023/06/18 09:37:05;;;;;;;7.78;5.32;;;26.10;99.90;;;;;;5032905;28;20033;-63
2023/06/18 09:39:32;;;;;;;7.80;5.22;;;26.10;99.90;;;;;;5040634;28;20017;-64
2023/06/18 09:42:05;;;;;;;9.02;6.10;;;26.20;99.90;;;;;;5036423;28;20056;-64
2023/06/18 09:44:30;;;;;;;8.48;5.60;;;26.30;99.90;;;;;;5033914;28;20514;-62
2023/06/18 09:46:57;;;;;;;9.23;5.40;;;26.40;99.90;;;;;;5038550;28;20045;-63
2023/06/18 09:49:24;;;;;;;11.65;6.45;;;26.50;99.90;;;;;;5040407;28;20484;-63
2023/06/18 09:51:51;;;;;;;11.68;6.13;;;26.60;99.90;;;;;;5036241;28;20091;-63
2023/06/18 09:54:17;;;;;;;8.15;5.65;;;26.70;99.90;;;;;;5039414;28;20016;-62
2023/06/18 09:57:00;;;;;;;15.00;5.55;;;26.80;99.90;;;;;;5031063;28;20117;-62
2023/06/18 09:59:26;;;;;;;6.95;5.72;;;26.80;99.90;;;;;;5035098;28;20407;-64
2023/06/18 10:01:52;;;;;;;17.25;6.13;;;27.00;99.90;;;;;;5037385;28;20234;-63
2023/06/18 10:04:18;;;;;;;8.48;5.50;;;27.10;99.90;;;;;;5037257;28;20100;-63
2023/06/18 10:06:54;;;;;;;12.48;5.93;;;27.20;99.90;;;;;;5045719;28;20035;-63
2023/06/18 10:09:20;;;;;;;9.50;6.10;;;27.10;99.90;;;;;;5038834;28;20228;-64
2023/06/18 10:11:50;;;;;;;8.35;5.68;;;27.20;99.90;;;;;;5040593;28;20096;-62
2023/06/18 10:14:18;;;;;;;10.88;6.55;;;27.40;99.90;;;;;;5036224;28;20021;-63
2023/06/18 10:16:50;;;;;;;12.88;6.78;;;27.50;99.90;;;;;;5041242;28;20025;-60
2023/06/18 10:19:25;;;;;;;8.25;5.72;;;27.40;99.90;;;;;;5043814;28;20424;-62
2023/06/18 10:22:00;;;;;;;9.50;5.50;;;27.60;99.90;;;;;;5043955;28;20024;-61
2023/06/18 10:24:34;;;;;;;12.38;5.53;;;27.60;99.90;;;;;;5044093;28;20426;-58
2023/06/18 10:27:01;;;;;;;6.82;5.60;;;27.90;99.90;;;;;;5036549;28;20029;-62
2023/06/18 10:29:29;;;;;;;13.93;6.18;;;28.10;99.90;;;;;;5043015;28;20036;-64
2023/06/18 10:31:55;;;;;;;9.90;6.68;;;28.40;99.90;;;;;;5044002;28;20053;-63
2023/06/18 10:34:21;;;;;;;7.32;5.43;;;28.20;99.10;;;;;;5047152;28;20037;-62
2023/06/18 10:36:47;;;;;;;11.27;5.45;;;28.40;99.20;;;;;;5038534;28;20070;-64
2023/06/18 10:39:13;;;;;;;9.30;5.60;;;28.50;98.90;;;;;;5036083;28;20033;-62
2023/06/18 10:41:45;;;;;;;9.77;5.63;;;28.70;98.20;;;;;;5038245;28;20068;-62
2023/06/18 10:44:10;;;;;;;6.82;5.10;;;28.80;97.80;;;;;;5034453;28;20093;-62
2023/06/18 10:46:36;;;;;;;8.25;5.32;;;29.10;97.20;;;;;;5034302;28;20033;-62
2023/06/18 10:49:20;;;;;;;8.27;5.55;;;29.30;96.00;;;;;;5039996;28;20029;-61
2023/06/18 10:51:57;;;;;;;6.90;4.83;;;28.90;96.20;;;;;;5040920;28;20154;-56
2023/06/18 10:54:26;;;;;;;11.05;5.45;;;28.80;95.30;;;;;;5034606;28;20106;-62
2023/06/18 10:56:56;;;;;;;11.73;5.35;;;28.70;95.90;;;;;;5036216;28;20057;-60
2023/06/18 10:59:42;;;;;;;9.13;6.00;;;28.80;94.50;;;;;;5042194;28;20021;-61
2023/06/18 11:02:08;;;;;;;9.68;5.57;;;29.20;94.70;;;;;;5037990;28;20017;-63
2023/06/18 11:04:35;;;;;;;10.68;5.47;;;29.30;94.10;;;;;;5038457;28;20115;-60
2023/06/18 11:07:12;;;;;;;7.55;5.72;;;29.40;93.50;;;;;;5039128;28;20372;-61
2023/06/18 11:09:52;;;;;;;9.88;5.80;;;29.70;92.80;;;;;;5038953;28;20076;-62
2023/06/18 11:12:33;;;;;;;11.07;5.80;;;30.00;93.10;;;;;;5038949;28;20022;-62
2023/06/18 11:15:17;;;;;;;9.07;5.30;;;30.10;95.50;;;;;;5038413;28;20373;-61
2023/06/18 11:17:52;;;;;;;15.57;6.35;;;30.20;92.40;;;;;;5040477;28;20063;-62
2023/06/18 11:20:22;;;;;;;6.10;4.97;;;30.10;93.00;;;;;;5041288;28;20415;-63
2023/06/18 11:22:53;;;;;;;8.82;5.60;;;30.10;92.40;;;;;;5039548;28;20514;-59
2023/06/18 11:25:19;;;;;;;8.50;5.72;;;29.90;94.10;;;;;;5043020;28;20044;-59
2023/06/18 11:27:46;;;;;;;11.52;6.25;;;29.90;92.10;;;;;;5042912;28;20025;-62
2023/06/18 11:30:13;;;;;;;11.98;5.53;;;29.80;94.20;;;;;;5041034;28;20028;-62
2023/06/18 11:32:40;;;;;;;8.88;6.18;;;29.40;94.70;;;;;;5044804;28;20029;-61
2023/06/18 11:35:10;;;;;;;7.13;5.43;;;29.30;94.40;;;;;;5039809;28;20025;-62
2023/06/18 11:37:39;;;;;;;10.65;5.93;;;29.30;94.20;;;;;;5041728;28;20033;-63
2023/06/18 11:40:08;;;;;;;8.18;5.63;;;29.50;92.20;;;;;;5041384;28;20029;-61
2023/06/18 11:42:36;;;;;;;7.43;5.50;;;29.50;91.00;;;;;;5039894;28;20032;-63
2023/06/18 11:45:06;;;;;;;8.85;5.40;;;29.50;90.40;;;;;;5037539;28;20110;-63
2023/06/18 11:47:35;;;;;;;6.97;4.97;;;29.30;90.60;;;;;;5042354;28;20033;-63
2023/06/18 11:50:01;;;;;;;7.97;5.53;;;29.40;91.20;;;;;;5037545;28;21603;-63
2023/06/18 11:52:28;;;;;;;8.48;6.20;;;29.50;90.30;;;;;;5040094;28;20118;-62
2023/06/18 11:55:02;;;;;;;6.88;5.70;;;29.60;90.20;;;;;;5045199;28;20044;-59
2023/06/18 11:57:28;;;;;;;7.80;5.07;;;29.80;89.70;;;;;;5038285;28;20114;-64
2023/06/18 11:59:54;;;;;;;14.88;5.47;;;30.00;88.50;;;;;;5041800;28;20053;-62
2023/06/18 12:02:27;;;;;;;12.70;5.65;;;29.90;87.70;;;;;;5039996;28;20084;-62
2023/06/18 12:05:00;;;;;;;6.77;5.17;;;29.80;87.90;;;;;;5040774;28;20041;-63
2023/06/18 12:07:25;;;;;;;9.00;5.15;;;29.50;89.10;;;;;;5042388;28;20053;-64
2023/06/18 12:09:53;;;;;;;6.50;4.85;;;29.40;92.30;;;;;;5037900;28;20091;-64
2023/06/18 12:12:41;;;;;;;8.85;5.68;;;29.60;88.50;;;;;;5041379;28;20040;-64
2023/06/18 12:15:12;;;;;;;8.63;6.00;;;29.60;86.30;;;;;;5038665;28;20025;-64
2023/06/18 12:18:07;;;;;;;9.52;5.63;;;29.60;85.60;;;;;;5038980;28;20054;-63
2023/06/18 12:20:34;;;;;;;11.95;6.40;;;29.60;85.50;;;;;;5039374;28;20025;-64
2023/06/18 12:23:01;;;;;;;7.72;5.60;;;29.80;86.20;;;;;;5038860;28;20044;-63
2023/06/18 12:25:29;;;;;;;7.03;5.43;;;30.00;85.90;;;;;;5040424;28;20056;-63
2023/06/18 12:27:56;;;;;;;8.02;5.80;;;30.30;85.80;;;;;;5041018;28;20025;-62
2023/06/18 12:30:39;;;;;;;8.70;5.65;;;30.40;84.40;;;;;;5046634;28;20075;-64
2023/06/18 12:33:10;;;;;;;17.58;9.20;;;30.30;88.40;;;;;;5041201;28;20027;-64
2023/06/18 12:35:36;;;;;;;11.25;5.60;;;29.70;91.20;;;;;;5044182;28;20503;-62
2023/06/18 12:38:08;;;;;;;10.73;5.60;;;30.00;91.70;;;;;;5041079;28;20063;-62
2023/06/18 12:40:46;;;;;;;8.07;5.63;;;30.00;84.90;;;;;;5042776;28;20052;-63
2023/06/18 12:43:13;;;;;;;8.85;5.65;;;30.00;83.90;;;;;;5036760;28;20046;-63